Portada
METAR-TAF:

METAR-TAF

Aeroports :

South Jersey Regional Airport

Mount Holly, Nova Jersey, Estats Units d'Amèrica

latitud: 39-56-26N, longitud: 074-50-28W, altitud: 16 m

Observació

L'informe es va fer fa 28 minuts, a les 09:54 UTC
Vent calma
Temperatura 0°C
Humitat 86%
Pressió 1031 hPa
Visibilitat: 16.1 km
Cel clar

METAR: KVAY 310954Z AUTO 00000KT 10SM CLR 00/M02 A3044 RMK AO2 SLP310 T00001022

Hora: 06:22 (10:22 UTC)


TAF: manca

Observacions i pronòstics meteorològics de més de 4000 aeroports (METAR i TAF).

Les estacions disponibles són els punts grocs i vermells al mapa.

Posi el ratolí al punt desitjat per veure el nom de l'estació.

Feu clic per veure les observacions i els pronòstics meteorològics.

Per canviar el mapa: feu clic els botons verds amb una creu de color negre per apropar; al botó verd amb un guió per allunyar la imatge; o en les fletxes verdes per a mapes adjacents.


METAR-TAF: